createdAt,value
2018-10-09T00:01:59.617Z,3.33
2018-10-09T00:04:27.745Z,3.17
2018-10-09T00:06:55.841Z,2.83
2018-10-09T00:09:23.961Z,3.13
2018-10-09T00:11:52.057Z,3.07
2018-10-09T00:14:20.151Z,3.00
2018-10-09T00:16:48.245Z,3.10
2018-10-09T00:19:16.333Z,3.77
2018-10-09T00:21:44.552Z,3.37
2018-10-09T00:24:12.649Z,2.40
2018-10-09T00:26:40.801Z,3.13
2018-10-09T00:29:08.902Z,2.23
2018-10-09T00:31:37.194Z,2.70
2018-10-09T00:34:05.334Z,2.50
2018-10-09T00:36:33.725Z,2.47
2018-10-09T00:39:02.213Z,2.40
2018-10-09T00:41:30.353Z,2.87
2018-10-09T00:43:58.574Z,2.77
2018-10-09T00:46:26.729Z,2.30
2018-10-09T00:48:54.886Z,2.60
2018-10-09T00:51:23.046Z,2.63
2018-10-09T00:53:51.222Z,3.40
2018-10-09T00:56:19.746Z,2.17
2018-10-09T00:58:47.821Z,2.30
2018-10-09T01:01:15.978Z,2.13
2018-10-09T01:06:19.421Z,2.33
2018-10-09T01:08:47.657Z,2.10
2018-10-09T01:11:15.937Z,2.03
2018-10-09T01:13:44.020Z,2.10
2018-10-09T01:16:12.209Z,1.97
2018-10-09T01:18:40.389Z,2.00
2018-10-09T01:21:08.621Z,2.53
2018-10-09T01:23:36.818Z,2.30
2018-10-09T01:26:05.038Z,2.30
2018-10-09T01:28:33.148Z,2.07
2018-10-09T01:31:01.301Z,1.63
2018-10-09T01:33:29.463Z,2.00
2018-10-09T01:35:57.580Z,1.50
2018-10-09T01:41:00.993Z,1.60
2018-10-09T01:43:29.061Z,2.10
2018-10-09T01:45:57.317Z,1.70
2018-10-09T01:48:25.394Z,2.10
2018-10-09T01:50:53.513Z,1.50
2018-10-09T01:53:21.622Z,1.67
2018-10-09T01:55:49.713Z,2.00
2018-10-09T01:58:17.806Z,2.00
2018-10-09T02:00:45.986Z,1.60
2018-10-09T02:03:14.053Z,2.13
2018-10-09T02:05:42.205Z,1.70
2018-10-09T02:08:10.369Z,1.80
2018-10-09T02:10:38.500Z,1.80
2018-10-09T02:13:06.570Z,1.50
2018-10-09T02:15:34.694Z,2.00
2018-10-09T02:18:02.801Z,1.97
2018-10-09T02:20:30.909Z,1.67
2018-10-09T02:22:59.001Z,1.70
2018-10-09T02:25:27.228Z,1.70
2018-10-09T02:27:55.302Z,1.60
2018-10-09T02:30:23.444Z,1.80
2018-10-09T02:32:51.531Z,1.60
2018-10-09T02:35:19.639Z,1.70
2018-10-09T02:37:47.769Z,1.40
2018-10-09T02:40:15.871Z,1.60
2018-10-09T02:42:44.009Z,1.30
2018-10-09T02:45:12.231Z,1.50
2018-10-09T02:47:40.309Z,1.57
2018-10-09T02:50:08.402Z,1.50
2018-10-09T02:52:36.470Z,1.37
2018-10-09T02:55:04.551Z,1.53
2018-10-09T02:57:32.651Z,1.40
2018-10-09T03:00:00.777Z,1.60
2018-10-09T03:02:28.841Z,1.20
2018-10-09T03:04:56.913Z,1.37
2018-10-09T03:07:25.025Z,1.73
2018-10-09T03:09:53.109Z,1.50
2018-10-09T03:12:21.541Z,2.00
2018-10-09T03:14:49.675Z,1.60
2018-10-09T03:17:17.790Z,1.70
2018-10-09T03:19:46.014Z,1.77
2018-10-09T03:22:14.107Z,1.77
2018-10-09T03:24:42.233Z,1.70
2018-10-09T03:27:10.318Z,1.47
2018-10-09T03:29:38.446Z,1.40
2018-10-09T03:32:06.988Z,1.60
2018-10-09T03:34:35.366Z,1.30
2018-10-09T03:37:03.622Z,1.50
2018-10-09T03:39:31.801Z,1.30
2018-10-09T03:42:00.063Z,1.30
2018-10-09T03:44:28.179Z,1.43
2018-10-09T03:46:56.393Z,1.67
2018-10-09T03:49:24.602Z,1.60
2018-10-09T03:51:53.095Z,1.40
2018-10-09T03:54:21.249Z,1.73
2018-10-09T03:56:49.648Z,1.50
2018-10-09T04:01:54.950Z,1.47
2018-10-09T04:04:23.354Z,1.53
2018-10-09T04:06:51.679Z,1.33
2018-10-09T04:09:19.854Z,1.47
2018-10-09T04:11:48.217Z,1.17
2018-10-09T04:14:16.515Z,1.30
2018-10-09T04:16:45.028Z,1.30
2018-10-09T04:19:13.129Z,1.30
2018-10-09T04:21:41.476Z,1.27
2018-10-09T04:24:09.672Z,1.17
2018-10-09T04:26:37.893Z,1.63
2018-10-09T04:29:06.149Z,1.60
2018-10-09T04:31:34.367Z,1.30
2018-10-09T04:34:02.709Z,1.00
2018-10-09T04:36:31.247Z,1.33
2018-10-09T04:38:59.713Z,1.50
2018-10-09T04:41:27.841Z,1.40
2018-10-09T04:43:56.382Z,1.53
2018-10-09T04:46:24.845Z,1.47
2018-10-09T04:48:52.993Z,1.30
2018-10-09T04:51:21.764Z,1.80
2018-10-09T04:53:50.241Z,1.50
2018-10-09T04:56:19.779Z,1.33
2018-10-09T04:58:48.099Z,1.97
2018-10-09T05:01:16.436Z,1.63
2018-10-09T05:03:44.967Z,1.70
2018-10-09T05:06:13.282Z,1.20
2018-10-09T05:08:41.372Z,1.20
2018-10-09T05:11:09.605Z,1.13
2018-10-09T05:13:37.752Z,1.60
2018-10-09T05:16:06.112Z,1.30
2018-10-09T05:18:34.231Z,1.70
2018-10-09T05:21:02.405Z,1.33
2018-10-09T05:23:30.566Z,1.60
2018-10-09T05:25:58.905Z,1.67
2018-10-09T05:28:27.192Z,1.57
2018-10-09T05:30:55.387Z,1.80
2018-10-09T05:33:23.592Z,1.43
2018-10-09T05:35:51.891Z,2.10
2018-10-09T05:38:20.230Z,1.80
2018-10-09T05:40:48.410Z,1.60
2018-10-09T05:43:16.885Z,1.63
2018-10-09T05:45:45.319Z,1.87
2018-10-09T05:48:13.815Z,2.07
2018-10-09T05:50:42.013Z,1.60
2018-10-09T05:53:10.215Z,1.50
2018-10-09T05:55:38.506Z,1.30
2018-10-09T05:58:06.962Z,1.23
2018-10-09T06:00:35.203Z,1.23
2018-10-09T06:03:03.429Z,1.83
2018-10-09T06:08:08.821Z,1.93
2018-10-09T06:10:37.029Z,1.40
2018-10-09T06:13:05.254Z,1.63
2018-10-09T06:15:33.575Z,1.70
2018-10-09T06:18:01.731Z,1.60
2018-10-09T06:20:29.787Z,1.53
2018-10-09T06:22:58.013Z,1.80
2018-10-09T06:25:26.102Z,1.50
2018-10-09T06:27:54.289Z,1.70
2018-10-09T06:30:22.332Z,1.60
2018-10-09T06:32:50.457Z,1.57
2018-10-09T06:35:18.593Z,1.50
2018-10-09T06:37:46.722Z,1.40
2018-10-09T06:40:14.786Z,1.57
2018-10-09T06:42:42.952Z,1.50
2018-10-09T06:45:11.034Z,1.70
2018-10-09T06:47:39.137Z,1.63
2018-10-09T06:50:07.269Z,1.70
2018-10-09T06:52:35.553Z,2.17
2018-10-09T06:55:03.606Z,2.43
2018-10-09T06:57:31.701Z,1.60
2018-10-09T06:59:59.786Z,1.97
2018-10-09T07:02:27.865Z,2.17
2018-10-09T07:04:55.934Z,2.50
2018-10-09T07:07:24.100Z,1.70
2018-10-09T07:09:52.374Z,1.90
2018-10-09T07:12:20.439Z,2.07
2018-10-09T07:14:48.558Z,1.67
2018-10-09T07:17:16.715Z,1.80
2018-10-09T07:19:44.815Z,1.90
2018-10-09T07:22:12.891Z,1.90
2018-10-09T07:24:41.024Z,2.30
2018-10-09T07:27:09.166Z,1.63
2018-10-09T07:29:37.294Z,1.63
2018-10-09T07:32:05.390Z,1.60
2018-10-09T07:34:33.444Z,1.80
2018-10-09T07:37:01.658Z,1.23
2018-10-09T07:39:29.689Z,1.30
2018-10-09T07:41:57.799Z,2.30
2018-10-09T07:44:25.990Z,1.63
2018-10-09T07:46:53.974Z,1.30
2018-10-09T07:49:22.126Z,1.73
2018-10-09T07:51:50.189Z,1.43
2018-10-09T07:54:18.249Z,1.47
2018-10-09T07:56:46.413Z,1.50
2018-10-09T07:59:14.475Z,1.30
2018-10-09T08:01:42.530Z,1.73
2018-10-09T08:04:10.716Z,1.67
2018-10-09T08:06:38.814Z,1.60
2018-10-09T08:09:09.095Z,1.40
2018-10-09T08:11:37.138Z,1.50
2018-10-09T08:14:05.510Z,1.33
2018-10-09T08:16:33.607Z,1.33
2018-10-09T08:19:02.161Z,1.10
2018-10-09T08:21:30.207Z,1.50
2018-10-09T08:23:58.255Z,1.63
2018-10-09T08:26:26.367Z,1.20
2018-10-09T08:28:54.532Z,1.40
2018-10-09T08:31:22.634Z,1.40
2018-10-09T08:33:50.807Z,1.27
2018-10-09T08:36:18.917Z,1.50
2018-10-09T08:38:47.100Z,1.37
2018-10-09T08:41:15.311Z,1.20
2018-10-09T08:43:43.350Z,1.50
2018-10-09T08:46:11.501Z,1.47
2018-10-09T08:48:39.943Z,1.17
2018-10-09T08:51:08.068Z,1.40
2018-10-09T08:53:36.158Z,1.17
2018-10-09T08:56:04.404Z,1.23
2018-10-09T08:58:32.504Z,1.33
2018-10-09T09:01:00.626Z,1.10
2018-10-09T09:03:28.805Z,1.20
2018-10-09T09:05:56.802Z,1.30
2018-10-09T09:08:24.846Z,1.20
2018-10-09T09:10:52.906Z,1.30
2018-10-09T09:13:20.974Z,1.00
2018-10-09T09:15:49.042Z,1.40
2018-10-09T09:18:17.111Z,1.30
2018-10-09T09:20:45.324Z,1.30
2018-10-09T09:23:13.339Z,1.60
2018-10-09T09:25:41.462Z,1.03
2018-10-09T09:28:09.565Z,1.00
2018-10-09T09:30:37.621Z,1.30
2018-10-09T09:33:05.747Z,1.43
2018-10-09T09:35:33.762Z,1.00
2018-10-09T09:38:02.015Z,1.40
2018-10-09T09:40:33.082Z,1.40
2018-10-09T09:43:01.206Z,1.00
2018-10-09T09:45:29.299Z,1.40
2018-10-09T09:47:57.406Z,0.97
2018-10-09T09:50:25.544Z,1.30
2018-10-09T09:52:53.583Z,1.07
2018-10-09T09:55:21.703Z,1.33
2018-10-09T09:57:49.887Z,2.10
2018-10-09T10:00:23.362Z,11.80
2018-10-09T10:02:51.563Z,50.00
2018-10-09T10:05:19.618Z,128.23
2018-10-09T10:07:47.722Z,137.30
2018-10-09T10:10:15.819Z,106.43
2018-10-09T10:12:43.940Z,90.97
2018-10-09T10:15:12.056Z,74.20
2018-10-09T10:17:40.214Z,69.37
2018-10-09T10:20:08.423Z,65.57
2018-10-09T10:22:36.622Z,63.23
2018-10-09T10:25:04.900Z,61.13
2018-10-09T10:27:33.196Z,58.30
2018-10-09T10:30:01.298Z,57.57
2018-10-09T10:32:29.678Z,55.77
2018-10-09T10:34:57.816Z,52.53
2018-10-09T10:37:25.918Z,52.00
2018-10-09T10:39:54.230Z,50.07
2018-10-09T10:42:22.344Z,50.00
2018-10-09T10:44:50.550Z,47.33
2018-10-09T10:47:18.658Z,47.53
2018-10-09T10:49:46.750Z,45.63
2018-10-09T10:52:14.843Z,43.60
2018-10-09T10:54:42.938Z,44.63
2018-10-09T10:57:11.006Z,43.00
2018-10-09T10:59:39.151Z,44.37
2018-10-09T11:02:07.666Z,39.63
2018-10-09T11:04:35.972Z,40.30
2018-10-09T11:07:04.154Z,38.83
2018-10-09T11:09:32.364Z,36.50
2018-10-09T11:12:00.666Z,36.70
2018-10-09T11:14:28.942Z,35.67
2018-10-09T11:16:56.979Z,33.73
2018-10-09T11:19:25.157Z,33.97
2018-10-09T11:21:53.567Z,33.77
2018-10-09T11:24:21.779Z,33.33
2018-10-09T11:26:49.886Z,32.73
2018-10-09T11:29:17.990Z,30.57
2018-10-09T11:31:46.074Z,30.50
2018-10-09T11:34:14.158Z,29.43
2018-10-09T11:36:42.287Z,28.90
2018-10-09T11:39:10.492Z,28.87
2018-10-09T11:41:38.602Z,28.00
2018-10-09T11:44:06.769Z,26.90
2018-10-09T11:46:35.958Z,25.27
2018-10-09T11:49:04.126Z,26.53
2018-10-09T11:51:32.264Z,25.30
2018-10-09T11:54:00.406Z,25.37
2018-10-09T11:56:28.473Z,23.83
2018-10-09T11:58:56.641Z,23.90
2018-10-09T12:01:24.692Z,22.50
2018-10-09T12:03:52.855Z,22.93
2018-10-09T12:06:20.927Z,22.50
2018-10-09T12:08:49.038Z,22.80
2018-10-09T12:11:17.176Z,21.97
2018-10-09T12:13:45.255Z,20.37
2018-10-09T12:16:13.385Z,21.30
2018-10-09T12:18:41.530Z,19.30
2018-10-09T12:21:09.691Z,19.93
2018-10-09T12:23:37.806Z,18.50
2018-10-09T12:26:05.888Z,19.03
2018-10-09T12:28:34.012Z,18.23
2018-10-09T12:31:02.103Z,18.67
2018-10-09T12:33:30.230Z,18.23
2018-10-09T12:35:58.380Z,17.63
2018-10-09T12:38:26.693Z,17.43
2018-10-09T12:40:54.798Z,17.57
2018-10-09T12:43:22.894Z,15.93
2018-10-09T12:45:50.982Z,16.63
2018-10-09T12:48:19.063Z,16.73
2018-10-09T12:50:47.150Z,17.07
2018-10-09T12:53:15.230Z,15.80
2018-10-09T12:55:43.310Z,15.47
2018-10-09T12:58:11.407Z,15.13
2018-10-09T13:00:39.559Z,14.37
2018-10-09T13:03:07.821Z,14.93
2018-10-09T13:05:35.939Z,14.73
2018-10-09T13:08:03.986Z,14.97
2018-10-09T13:10:32.110Z,12.90
2018-10-09T13:13:00.218Z,12.67
2018-10-09T13:15:28.333Z,12.97
2018-10-09T13:17:56.468Z,11.97
2018-10-09T13:20:24.541Z,11.67
2018-10-09T13:22:52.756Z,12.73
2018-10-09T13:25:20.775Z,11.97
2018-10-09T13:27:48.889Z,12.33
2018-10-09T13:30:16.994Z,11.67
2018-10-09T13:32:45.078Z,11.40
2018-10-09T13:35:13.169Z,11.23
2018-10-09T13:37:41.287Z,10.33
2018-10-09T13:40:09.411Z,11.00
2018-10-09T13:42:37.506Z,9.93
2018-10-09T13:45:05.754Z,10.73
2018-10-09T13:47:33.912Z,10.33
2018-10-09T13:50:01.904Z,10.63
2018-10-09T13:52:29.979Z,9.40
2018-10-09T13:54:58.114Z,9.33
2018-10-09T13:57:26.242Z,10.10
2018-10-09T13:59:54.269Z,9.30
2018-10-09T14:02:22.806Z,8.90
2018-10-09T14:04:50.934Z,10.03
2018-10-09T14:07:19.091Z,9.10
2018-10-09T14:09:47.214Z,8.90
2018-10-09T14:12:15.335Z,7.83
2018-10-09T14:14:43.428Z,8.47
2018-10-09T14:17:11.533Z,7.67
2018-10-09T14:19:39.654Z,8.67
2018-10-09T14:22:07.759Z,7.73
2018-10-09T14:24:35.886Z,7.97
2018-10-09T14:27:03.967Z,7.30
2018-10-09T14:29:32.289Z,7.87
2018-10-09T14:32:00.390Z,7.63
2018-10-09T14:34:28.491Z,7.37
2018-10-09T14:36:56.583Z,8.37
2018-10-09T14:39:24.789Z,8.07
2018-10-09T14:41:52.926Z,6.97
2018-10-09T14:44:21.039Z,6.67
2018-10-09T14:46:49.167Z,7.13
2018-10-09T14:49:17.357Z,7.20
2018-10-09T14:51:45.527Z,7.37
2018-10-09T14:54:13.626Z,6.03
2018-10-09T14:56:41.772Z,6.70
2018-10-09T14:59:09.891Z,6.87
2018-10-09T15:01:38.023Z,6.90
2018-10-09T15:04:06.343Z,6.87
2018-10-09T15:06:34.422Z,5.93
2018-10-09T15:09:02.481Z,6.03
2018-10-09T15:11:30.570Z,5.40
2018-10-09T15:13:58.670Z,5.97
2018-10-09T15:16:26.762Z,6.33
2018-10-09T15:18:54.860Z,6.83
2018-10-09T15:21:22.963Z,6.07
2018-10-09T15:23:51.042Z,6.00
2018-10-09T15:26:19.103Z,5.33
2018-10-09T15:28:47.239Z,5.80
2018-10-09T15:31:15.343Z,5.70
2018-10-09T15:33:43.462Z,4.60
2018-10-09T15:36:11.571Z,5.23
2018-10-09T15:38:39.655Z,5.20
2018-10-09T15:41:07.869Z,5.90
2018-10-09T15:43:35.964Z,4.60
2018-10-09T15:46:04.122Z,5.27
2018-10-09T15:48:32.239Z,5.83
2018-10-09T15:51:00.344Z,5.43
2018-10-09T15:53:28.503Z,5.43
2018-10-09T15:55:56.635Z,5.37
2018-10-09T15:58:24.766Z,4.70
2018-10-09T16:00:52.800Z,4.97
2018-10-09T16:03:20.965Z,4.73
2018-10-09T16:05:49.083Z,4.57
2018-10-09T16:08:17.219Z,5.13
2018-10-09T16:10:45.686Z,5.60
2018-10-09T16:13:13.836Z,4.60
2018-10-09T16:15:41.975Z,4.57
2018-10-09T16:18:10.085Z,4.50
2018-10-09T16:20:38.264Z,4.43
2018-10-09T16:23:06.711Z,4.93
2018-10-09T16:25:34.806Z,4.67
2018-10-09T16:28:02.979Z,4.43
2018-10-09T16:30:31.104Z,5.10
2018-10-09T16:32:59.239Z,4.37
2018-10-09T16:35:27.320Z,4.57
2018-10-09T16:37:56.082Z,4.00
2018-10-09T16:40:24.225Z,4.40
2018-10-09T16:42:52.398Z,4.43
2018-10-09T16:45:20.522Z,3.57
2018-10-09T16:47:48.691Z,3.97
2018-10-09T16:50:16.800Z,4.20
2018-10-09T16:52:44.919Z,3.83
2018-10-09T16:55:13.093Z,3.57
2018-10-09T16:57:41.214Z,3.70
2018-10-09T17:00:09.334Z,3.70
2018-10-09T17:02:37.654Z,3.40
2018-10-09T17:05:05.886Z,4.27
2018-10-09T17:07:33.959Z,4.03
2018-10-09T17:10:02.077Z,3.77
2018-10-09T17:12:30.278Z,3.23
2018-10-09T17:14:58.391Z,3.40
2018-10-09T17:17:26.509Z,3.37
2018-10-09T17:19:54.689Z,3.43
2018-10-09T17:22:22.892Z,3.37
2018-10-09T17:24:50.950Z,3.27
2018-10-09T17:27:19.065Z,3.57
2018-10-09T17:29:47.188Z,3.70
2018-10-09T17:32:15.246Z,3.17
2018-10-09T17:34:43.354Z,3.30
2018-10-09T17:37:11.426Z,3.47
2018-10-09T17:39:40.047Z,3.37
2018-10-09T17:42:08.157Z,3.60
2018-10-09T17:44:36.313Z,3.00
2018-10-09T17:47:08.379Z,3.27
2018-10-09T17:49:37.786Z,2.60
2018-10-09T17:52:06.027Z,2.90
2018-10-09T17:54:34.137Z,3.07
2018-10-09T17:57:02.255Z,2.77
2018-10-09T17:59:30.607Z,2.97
2018-10-09T18:01:59.358Z,3.57
2018-10-09T18:04:27.526Z,3.20
2018-10-09T18:06:56.103Z,2.80
2018-10-09T18:09:24.215Z,2.80
2018-10-09T18:11:52.324Z,3.17
2018-10-09T18:14:20.443Z,3.27
2018-10-09T18:16:48.665Z,2.90
2018-10-09T18:19:16.870Z,3.60
2018-10-09T18:21:45.250Z,3.10
2018-10-09T18:24:13.338Z,3.23
2018-10-09T18:26:41.439Z,3.33
2018-10-09T18:29:09.578Z,2.70
2018-10-09T18:31:37.746Z,2.83
2018-10-09T18:34:05.831Z,3.10
2018-10-09T18:36:34.315Z,2.80
2018-10-09T18:39:02.395Z,3.07
2018-10-09T18:41:30.793Z,2.80
2018-10-09T18:43:58.599Z,2.97
2018-10-09T18:46:26.967Z,3.00
2018-10-09T18:48:55.040Z,3.00
2018-10-09T18:51:23.170Z,2.47
2018-10-09T18:53:52.280Z,2.70
2018-10-09T18:56:20.379Z,3.07
2018-10-09T18:58:49.366Z,2.50
2018-10-09T19:01:17.371Z,2.90
2018-10-09T19:03:45.665Z,2.70
2018-10-09T19:06:13.890Z,2.43
2018-10-09T19:08:41.967Z,2.70
2018-10-09T19:11:10.107Z,2.90
2018-10-09T19:13:38.191Z,2.40
2018-10-09T19:16:06.519Z,2.97
2018-10-09T19:18:34.676Z,2.40
2018-10-09T19:21:02.826Z,2.80
2018-10-09T19:23:31.020Z,2.53
2018-10-09T19:25:59.175Z,2.93
2018-10-09T19:28:27.331Z,2.63
2018-10-09T19:30:55.441Z,2.83
2018-10-09T19:33:23.515Z,2.40
2018-10-09T19:35:51.582Z,2.87
2018-10-09T19:38:19.938Z,2.43
2018-10-09T19:40:48.090Z,3.07
2018-10-09T19:43:16.312Z,3.40
2018-10-09T19:45:44.422Z,2.43
2018-10-09T19:48:12.631Z,2.77
2018-10-09T19:50:40.834Z,2.20
2018-10-09T19:53:08.879Z,3.20
2018-10-09T19:55:37.076Z,2.93
2018-10-09T19:58:05.369Z,2.80
2018-10-09T20:00:33.540Z,3.07
2018-10-09T20:05:42.860Z,3.33
2018-10-09T20:08:11.025Z,4.03
2018-10-09T20:10:39.166Z,5.00
2018-10-09T20:13:07.372Z,4.50
2018-10-09T20:15:35.506Z,4.53
2018-10-09T20:18:03.654Z,3.83
2018-10-09T20:20:32.578Z,4.63
2018-10-09T20:23:00.673Z,6.07
2018-10-09T20:25:28.766Z,6.07
2018-10-09T20:27:56.916Z,5.33
2018-10-09T20:30:25.049Z,5.47
2018-10-09T20:32:53.172Z,6.03
2018-10-09T20:35:21.321Z,5.83
2018-10-09T20:37:49.387Z,5.13
2018-10-09T20:40:17.555Z,4.70
2018-10-09T20:42:46.242Z,5.10
2018-10-09T20:45:14.362Z,4.73
2018-10-09T20:47:44.190Z,4.30
2018-10-09T20:50:13.263Z,5.23
2018-10-09T20:52:42.491Z,4.57
2018-10-09T20:55:11.354Z,4.30
2018-10-09T20:57:39.470Z,4.60
2018-10-09T21:00:08.383Z,4.80
2018-10-09T21:02:38.655Z,4.20
2018-10-09T21:05:07.722Z,3.70
2018-10-09T21:07:40.608Z,3.90
2018-10-09T21:10:09.376Z,3.30
2018-10-09T21:12:49.702Z,5.00
2018-10-09T21:15:18.323Z,3.37
2018-10-09T21:17:47.863Z,4.37
2018-10-09T21:20:15.936Z,3.83
2018-10-09T21:22:44.110Z,3.70
2018-10-09T21:25:12.382Z,3.83
2018-10-09T21:27:40.546Z,3.33
2018-10-09T21:30:09.015Z,3.77
2018-10-09T21:32:37.444Z,3.63
2018-10-09T21:35:08.565Z,3.70
2018-10-09T21:37:37.952Z,3.27
2018-10-09T21:40:06.431Z,3.23
2018-10-09T21:42:34.619Z,2.77
2018-10-09T21:45:02.892Z,3.30
2018-10-09T21:47:31.218Z,3.10
2018-10-09T21:49:59.434Z,3.03
2018-10-09T21:52:27.548Z,3.03
2018-10-09T21:54:55.674Z,3.20
2018-10-09T21:57:24.409Z,3.10
2018-10-09T21:59:52.582Z,3.07
2018-10-09T22:02:20.716Z,3.50
2018-10-09T22:04:48.855Z,3.13
2018-10-09T22:07:18.187Z,3.23
2018-10-09T22:09:46.630Z,3.20
2018-10-09T22:12:14.982Z,3.37
2018-10-09T22:14:43.166Z,3.20
2018-10-09T22:17:11.471Z,3.30
2018-10-09T22:19:39.778Z,4.23
2018-10-09T22:22:08.019Z,3.03
2018-10-09T22:24:36.431Z,3.20
2018-10-09T22:27:04.687Z,2.70
2018-10-09T22:29:33.150Z,2.80
2018-10-09T22:35:21.267Z,3.30
2018-10-09T22:37:49.444Z,2.80
2018-10-09T22:40:17.851Z,3.00
2018-10-09T22:42:46.130Z,3.13
2018-10-09T22:45:14.290Z,3.03
2018-10-09T22:47:42.519Z,3.07
2018-10-09T22:50:10.852Z,2.80
2018-10-09T22:52:39.095Z,3.10
2018-10-09T22:55:07.459Z,2.77
2018-10-09T22:57:36.444Z,3.43
2018-10-09T23:00:04.648Z,2.80
2018-10-09T23:02:32.808Z,2.93
2018-10-09T23:05:01.001Z,2.83
2018-10-09T23:07:29.260Z,3.07
2018-10-09T23:09:57.530Z,2.80
2018-10-09T23:12:25.789Z,3.10
2018-10-09T23:14:54.023Z,2.70
2018-10-09T23:17:22.290Z,2.50
2018-10-09T23:19:50.474Z,2.70
2018-10-09T23:22:18.668Z,2.90
2018-10-09T23:24:46.950Z,2.53
2018-10-09T23:27:15.241Z,3.17
2018-10-09T23:29:43.599Z,2.67
2018-10-09T23:32:11.842Z,3.67
2018-10-09T23:34:40.109Z,2.80
2018-10-09T23:37:08.658Z,2.63
2018-10-09T23:39:37.030Z,2.57
2018-10-09T23:42:05.979Z,2.73
2018-10-09T23:44:34.313Z,2.63
2018-10-09T23:47:02.594Z,2.43
2018-10-09T23:49:30.872Z,2.47
2018-10-09T23:51:58.994Z,2.53
2018-10-09T23:54:27.330Z,2.50
2018-10-09T23:56:55.588Z,2.60
2018-10-09T23:59:23.909Z,2.23
